Time;durP1;ratioP1;P1;durP2;ratioP2;P2;SDS_P1;SDS_P2;PMS_P1;PMS_P2;Temp;Humidity;BMP_temperature;BMP_pressure;BME280_temperature;BME280_humidity;BME280_pressure;Samples;Min_cycle;Max_cycle;Signal;HPM_P1;HPM_P2
2023/06/11 00:00:36;;;;;;;12.43;3.95;;;26.50;60.50;;;;;;5031056;28;20098;-55
2023/06/11 00:03:01;;;;;;;6.07;4.05;;;26.50;60.60;;;;;;5031043;28;20022;-55
2023/06/11 00:05:27;;;;;;;9.10;3.72;;;26.50;61.30;;;;;;5031038;28;20139;-55
2023/06/11 00:07:55;;;;;;;3.70;3.30;;;26.50;60.60;;;;;;5046037;28;20089;-55
2023/06/11 00:10:21;;;;;;;9.07;3.42;;;26.50;60.80;;;;;;5046137;28;20026;-55
2023/06/11 00:12:47;;;;;;;5.03;3.72;;;26.40;60.80;;;;;;5029703;28;20021;-55
2023/06/11 00:15:12;;;;;;;5.90;3.10;;;26.30;60.80;;;;;;5045942;28;20053;-55
2023/06/11 00:17:38;;;;;;;7.43;3.55;;;26.40;60.90;;;;;;5030923;28;20034;-55
2023/06/11 00:20:11;;;;;;;4.65;3.60;;;26.30;60.80;;;;;;5031049;28;20171;-55
2023/06/11 00:22:37;;;;;;;5.53;3.20;;;26.30;60.90;;;;;;5031029;28;20038;-55
2023/06/11 00:25:04;;;;;;;4.05;3.30;;;26.30;61.00;;;;;;5031075;28;20026;-55
2023/06/11 00:27:30;;;;;;;3.92;3.53;;;26.20;61.10;;;;;;5029739;28;20022;-55
2023/06/11 00:29:55;;;;;;;6.20;3.00;;;26.20;61.10;;;;;;5031085;28;20463;-56
2023/06/11 00:32:21;;;;;;;5.22;3.63;;;26.20;61.30;;;;;;5030953;28;20025;-55
2023/06/11 00:34:46;;;;;;;3.70;3.30;;;26.20;61.30;;;;;;5029391;28;20080;-55
2023/06/11 00:37:13;;;;;;;4.13;3.50;;;26.20;61.30;;;;;;5030786;28;20038;-55
2023/06/11 00:39:39;;;;;;;13.82;3.42;;;26.10;61.30;;;;;;5029424;28;20045;-55
2023/06/11 00:42:05;;;;;;;5.95;3.10;;;26.10;61.40;;;;;;5025978;28;20041;-55
2023/06/11 00:44:30;;;;;;;4.03;3.15;;;26.00;61.40;;;;;;5042489;28;20030;-55
2023/06/11 00:46:57;;;;;;;6.72;3.10;;;26.00;61.50;;;;;;5027716;28;20022;-55
2023/06/11 00:49:23;;;;;;;4.68;3.05;;;26.00;61.60;;;;;;5026254;28;20091;-55
2023/06/11 00:51:48;;;;;;;4.93;3.35;;;26.00;61.80;;;;;;5026112;28;20033;-55
2023/06/11 00:54:16;;;;;;;3.90;3.30;;;25.90;61.70;;;;;;5025959;28;20068;-55
2023/06/11 00:56:43;;;;;;;3.97;3.58;;;25.90;61.80;;;;;;5025976;28;20030;-55
2023/06/11 00:59:09;;;;;;;6.50;3.25;;;25.90;61.80;;;;;;5025959;28;20110;-55
2023/06/11 01:01:41;;;;;;;5.57;3.40;;;25.80;61.80;;;;;;5026105;28;20049;-55
2023/06/11 01:04:13;;;;;;;3.90;3.20;;;25.80;61.90;;;;;;5027298;28;20057;-55
2023/06/11 01:06:38;;;;;;;3.53;3.22;;;25.80;62.00;;;;;;5026228;28;20093;-55
2023/06/11 01:09:04;;;;;;;5.38;3.33;;;25.80;62.00;;;;;;5025799;28;20033;-55
2023/06/11 01:11:34;;;;;;;8.50;3.67;;;25.70;62.00;;;;;;5025763;28;20026;-55
2023/06/11 01:14:00;;;;;;;7.10;3.30;;;25.70;62.10;;;;;;5026841;28;20034;-55
2023/06/11 01:16:57;;;;;;;3.47;3.17;;;25.70;62.30;;;;;;5025803;28;20030;-55
2023/06/11 01:19:32;;;;;;;4.53;3.72;;;25.60;62.30;;;;;;5009392;28;20038;-55
2023/06/11 01:22:03;;;;;;;7.07;3.15;;;25.60;62.40;;;;;;5041943;28;20072;-55
2023/06/11 01:24:57;;;;;;;3.90;3.50;;;25.60;62.40;;;;;;5025482;28;20113;-55
2023/06/11 01:27:52;;;;;;;5.43;3.30;;;25.60;62.60;;;;;;5025689;28;20037;-55
2023/06/11 01:30:20;;;;;;;5.05;3.10;;;25.50;62.50;;;;;;5027818;28;20127;-55
2023/06/11 01:32:48;;;;;;;4.93;3.40;;;25.50;62.60;;;;;;5025624;28;20052;-55
2023/06/11 01:35:14;;;;;;;4.65;3.22;;;25.50;62.70;;;;;;5025270;28;20037;-55
2023/06/11 01:37:44;;;;;;;7.22;3.08;;;25.50;62.80;;;;;;5026578;28;20034;-55
2023/06/11 01:40:14;;;;;;;3.63;3.30;;;25.40;62.80;;;;;;5025873;28;20045;-55
2023/06/11 01:42:40;;;;;;;5.00;2.78;;;25.40;63.00;;;;;;5025248;28;20029;-55
2023/06/11 01:45:06;;;;;;;4.18;3.22;;;25.40;63.80;;;;;;5024841;28;20093;-55
2023/06/11 01:47:32;;;;;;;3.75;3.17;;;25.30;63.10;;;;;;5026486;28;20033;-55
2023/06/11 01:49:57;;;;;;;6.45;3.30;;;25.30;63.10;;;;;;5024923;28;20084;-55
2023/06/11 01:52:24;;;;;;;8.40;3.88;;;25.30;63.20;;;;;;5024845;28;20033;-55
2023/06/11 01:54:51;;;;;;;4.25;3.25;;;25.30;63.30;;;;;;5026406;28;20034;-55
2023/06/11 01:57:17;;;;;;;3.63;3.33;;;25.20;63.30;;;;;;5024882;28;20049;-55
2023/06/11 01:59:42;;;;;;;4.13;3.50;;;25.20;63.30;;;;;;5024857;28;20034;-55
2023/06/11 02:02:08;;;;;;;3.58;3.28;;;25.20;63.30;;;;;;5024645;28;20030;-55
2023/06/11 02:04:33;;;;;;;5.82;3.13;;;25.20;63.30;;;;;;5024517;28;20033;-55
2023/06/11 02:06:59;;;;;;;3.97;3.10;;;25.10;63.30;;;;;;5024810;28;20030;-55
2023/06/11 02:09:25;;;;;;;5.30;3.20;;;25.10;63.40;;;;;;5026125;28;20094;-55
2023/06/11 02:11:50;;;;;;;9.43;3.25;;;25.10;63.40;;;;;;5025997;28;20021;-55
2023/06/11 02:14:16;;;;;;;5.57;3.40;;;25.10;63.50;;;;;;5024461;28;20033;-54
2023/06/11 02:16:41;;;;;;;3.60;3.30;;;25.10;63.50;;;;;;5024402;28;20026;-55
2023/06/11 02:19:07;;;;;;;3.97;3.10;;;25.10;63.60;;;;;;5024402;28;20104;-55
2023/06/11 02:21:33;;;;;;;3.15;2.85;;;25.00;63.60;;;;;;5024398;28;20030;-54
2023/06/11 02:23:58;;;;;;;2.83;2.63;;;25.00;63.70;;;;;;5025689;28;20050;-55
2023/06/11 02:26:24;;;;;;;3.40;3.10;;;25.00;63.90;;;;;;5040747;28;20030;-55
2023/06/11 02:28:50;;;;;;;5.00;3.40;;;24.90;63.90;;;;;;5040787;28;20195;-55
2023/06/11 02:31:15;;;;;;;3.33;3.03;;;24.90;64.00;;;;;;5025708;28;20034;-55
2023/06/11 02:33:41;;;;;;;3.47;2.78;;;24.90;64.10;;;;;;5025589;28;20098;-55
2023/06/11 02:36:06;;;;;;;3.50;3.20;;;24.90;64.20;;;;;;5024388;28;20026;-55
2023/06/11 02:38:32;;;;;;;3.22;2.90;;;24.80;64.20;;;;;;5024084;28;20056;-55
2023/06/11 02:40:57;;;;;;;4.63;3.08;;;24.80;64.30;;;;;;5025599;28;20037;-55
2023/06/11 02:43:23;;;;;;;3.88;3.30;;;24.80;64.40;;;;;;5040363;28;20033;-55
2023/06/11 02:45:48;;;;;;;3.90;3.33;;;24.80;64.40;;;;;;5025368;28;20046;-55
2023/06/11 02:48:14;;;;;;;5.93;3.10;;;24.70;64.40;;;;;;5024088;28;20034;-55
2023/06/11 02:50:39;;;;;;;3.40;3.10;;;24.70;65.10;;;;;;5024154;28;20033;-55
2023/06/11 02:53:05;;;;;;;3.90;3.45;;;24.70;64.60;;;;;;5023976;28;20013;-55
2023/06/11 02:55:30;;;;;;;3.28;2.83;;;24.70;64.70;;;;;;5023745;28;20072;-55
2023/06/11 02:57:56;;;;;;;3.20;2.88;;;24.60;64.60;;;;;;5023841;28;20103;-55
2023/06/11 03:00:22;;;;;;;5.00;3.20;;;24.60;64.70;;;;;;5025205;28;20041;-55
2023/06/11 03:02:47;;;;;;;3.45;3.10;;;24.60;64.80;;;;;;5025235;28;20041;-54
2023/06/11 03:05:13;;;;;;;4.72;3.40;;;24.60;64.80;;;;;;5023176;28;20099;-55
2023/06/11 03:07:38;;;;;;;4.68;3.20;;;24.60;64.90;;;;;;5023648;28;20100;-55
2023/06/11 03:10:05;;;;;;;3.72;2.92;;;24.50;65.00;;;;;;5025219;28;20450;-55
2023/06/11 03:12:30;;;;;;;4.13;3.13;;;24.50;65.10;;;;;;5023616;28;20046;-55
2023/06/11 03:14:56;;;;;;;3.47;2.88;;;24.50;65.00;;;;;;5024860;28;20045;-55
2023/06/11 03:17:21;;;;;;;3.30;3.00;;;24.50;65.10;;;;;;5023527;28;20113;-55
2023/06/11 03:19:47;;;;;;;3.60;3.30;;;24.50;65.30;;;;;;5023628;28;20034;-55
2023/06/11 03:22:12;;;;;;;5.90;3.10;;;24.40;65.20;;;;;;5040002;28;20229;-55
2023/06/11 03:24:38;;;;;;;3.75;3.40;;;24.40;65.50;;;;;;5023403;28;20064;-55
2023/06/11 03:27:03;;;;;;;3.33;3.00;;;24.40;65.50;;;;;;5024842;28;20037;-55
2023/06/11 03:29:29;;;;;;;4.65;3.35;;;24.40;65.40;;;;;;5024978;28;20080;-55
2023/06/11 03:31:55;;;;;;;4.18;2.80;;;24.30;65.50;;;;;;5023389;28;20053;-55
2023/06/11 03:34:20;;;;;;;4.20;2.90;;;24.30;65.60;;;;;;5023488;28;20034;-55
2023/06/11 03:36:46;;;;;;;3.60;3.30;;;24.20;65.80;;;;;;5024920;28;20026;-55
2023/06/11 03:39:11;;;;;;;3.15;2.85;;;24.20;65.80;;;;;;5024943;28;20026;-55
2023/06/11 03:41:37;;;;;;;3.20;2.90;;;24.20;65.90;;;;;;5024643;28;20117;-55
2023/06/11 03:44:02;;;;;;;4.18;3.15;;;24.20;65.80;;;;;;5023199;28;20491;-55
2023/06/11 03:46:28;;;;;;;3.30;2.97;;;24.20;65.80;;;;;;5023354;28;20030;-55
2023/06/11 03:48:54;;;;;;;3.38;3.08;;;24.20;65.90;;;;;;5023485;28;20022;-54
2023/06/11 03:51:19;;;;;;;3.22;2.92;;;24.20;65.90;;;;;;5040188;28;20060;-55
2023/06/11 03:53:45;;;;;;;3.60;3.30;;;24.20;66.00;;;;;;5023560;28;20034;-55
2023/06/11 03:56:10;;;;;;;3.70;3.40;;;24.10;66.00;;;;;;5023952;28;20118;-54
2023/06/11 03:58:36;;;;;;;3.42;3.05;;;24.10;66.10;;;;;;5025188;28;20026;-55
2023/06/11 04:01:01;;;;;;;3.90;3.33;;;24.10;66.10;;;;;;5039668;28;20049;-55
2023/06/11 04:03:27;;;;;;;4.72;3.13;;;24.10;66.30;;;;;;5022710;28;20084;-55
2023/06/11 04:05:52;;;;;;;4.88;3.15;;;24.10;66.40;;;;;;5024459;28;20090;-55
2023/06/11 04:08:18;;;;;;;3.80;3.30;;;24.00;66.40;;;;;;5023189;28;20096;-55
2023/06/11 04:10:44;;;;;;;3.47;3.17;;;24.00;66.50;;;;;;5023263;28;20033;-55
2023/06/11 04:13:09;;;;;;;4.43;3.30;;;24.00;66.60;;;;;;5039366;28;20026;-55
2023/06/11 04:15:35;;;;;;;3.42;3.00;;;24.00;66.80;;;;;;5023190;28;20034;-55
2023/06/11 04:18:00;;;;;;;3.47;2.80;;;23.90;66.80;;;;;;5026336;28;20049;-55
2023/06/11 04:20:26;;;;;;;4.30;3.03;;;23.90;66.80;;;;;;5026654;28;20065;-55
2023/06/11 04:22:53;;;;;;;6.43;3.10;;;23.90;66.80;;;;;;5026762;28;20041;-55
2023/06/11 04:25:18;;;;;;;3.15;2.95;;;23.90;66.80;;;;;;5026424;28;20034;-55
2023/06/11 04:27:46;;;;;;;3.58;3.28;;;23.90;66.90;;;;;;5027883;28;20025;-55
2023/06/11 04:30:13;;;;;;;3.97;3.20;;;23.80;66.90;;;;;;5026631;28;20415;-55
2023/06/11 04:32:40;;;;;;;4.03;3.47;;;23.80;67.00;;;;;;5026312;28;20117;-54
2023/06/11 04:35:06;;;;;;;4.07;3.22;;;23.80;67.10;;;;;;5026395;28;20172;-55
2023/06/11 04:37:37;;;;;;;5.00;3.30;;;23.80;67.20;;;;;;5027956;28;20398;-55
2023/06/11 04:40:09;;;;;;;3.45;3.15;;;23.80;67.30;;;;;;5027907;28;20418;-55
2023/06/11 04:42:40;;;;;;;3.72;3.30;;;23.70;67.30;;;;;;5026510;28;20061;-55
2023/06/11 04:45:09;;;;;;;7.78;3.20;;;23.80;67.40;;;;;;5027717;28;20081;-54
2023/06/11 04:47:36;;;;;;;5.32;3.15;;;23.70;67.30;;;;;;5026023;28;20038;-55
2023/06/11 04:50:04;;;;;;;3.50;3.20;;;23.70;67.40;;;;;;5027515;28;20049;-55
2023/06/11 04:52:37;;;;;;;4.43;3.28;;;23.70;67.40;;;;;;5026243;28;20084;-55
2023/06/11 04:55:03;;;;;;;3.42;3.13;;;23.70;67.40;;;;;;5026198;28;20038;-55
2023/06/11 04:57:32;;;;;;;4.28;3.50;;;23.70;67.40;;;;;;5027259;28;20124;-55
2023/06/11 04:59:58;;;;;;;4.35;3.28;;;23.70;67.60;;;;;;5026034;28;20033;-55
2023/06/11 05:02:25;;;;;;;3.45;3.15;;;23.70;67.60;;;;;;5042461;28;20040;-55
2023/06/11 05:04:53;;;;;;;3.67;2.90;;;23.70;67.70;;;;;;5027327;28;20048;-55
2023/06/11 05:07:21;;;;;;;7.40;3.63;;;23.60;67.80;;;;;;5027097;28;20029;-55
2023/06/11 05:09:47;;;;;;;3.83;3.40;;;23.60;67.80;;;;;;5026317;28;20092;-54
2023/06/11 05:12:12;;;;;;;4.18;3.33;;;23.60;67.90;;;;;;5025852;28;20034;-55
2023/06/11 05:14:38;;;;;;;3.85;3.40;;;23.60;68.00;;;;;;5025556;28;20406;-55
2023/06/11 05:17:05;;;;;;;3.33;3.00;;;23.60;68.10;;;;;;5025753;28;20054;-55
2023/06/11 05:19:30;;;;;;;5.60;3.33;;;23.50;68.10;;;;;;5025603;28;20075;-55
2023/06/11 05:21:56;;;;;;;6.10;3.20;;;23.50;68.20;;;;;;5025576;28;20099;-55
2023/06/11 05:24:28;;;;;;;4.93;3.47;;;23.50;68.30;;;;;;5041893;28;20037;-55
2023/06/11 05:26:55;;;;;;;3.40;3.10;;;23.60;68.50;;;;;;5024972;28;20037;-55
2023/06/11 05:29:21;;;;;;;3.63;3.33;;;23.50;68.40;;;;;;5025563;28;20033;-55
2023/06/11 05:31:47;;;;;;;4.05;3.70;;;23.50;68.50;;;;;;5026847;28;20037;-55
2023/06/11 05:34:12;;;;;;;3.88;3.42;;;23.50;68.60;;;;;;5026777;28;20137;-54
2023/06/11 05:36:38;;;;;;;4.15;3.50;;;23.50;68.80;;;;;;5026724;28;20026;-54
2023/06/11 05:39:04;;;;;;;3.55;3.25;;;23.50;68.70;;;;;;5026609;28;20155;-55
2023/06/11 05:41:29;;;;;;;3.53;3.22;;;23.40;68.80;;;;;;5041618;28;20038;-55
2023/06/11 05:43:55;;;;;;;5.43;3.30;;;23.40;68.80;;;;;;5026567;28;20022;-54
2023/06/11 05:46:24;;;;;;;3.45;2.92;;;23.40;68.90;;;;;;5026579;28;20101;-55
2023/06/11 05:48:49;;;;;;;3.58;3.28;;;23.40;69.00;;;;;;5024962;28;20037;-55
2023/06/11 05:51:15;;;;;;;4.05;3.75;;;23.40;69.00;;;;;;5024869;28;20455;-55
2023/06/11 05:53:40;;;;;;;4.15;3.72;;;23.40;69.00;;;;;;5025214;28;20089;-55
2023/06/11 05:56:06;;;;;;;9.35;3.40;;;23.40;69.10;;;;;;5025356;28;20040;-54
2023/06/11 05:58:32;;;;;;;4.22;3.83;;;23.40;69.30;;;;;;5024854;28;20022;-55
2023/06/11 06:01:02;;;;;;;3.78;3.47;;;23.40;69.30;;;;;;5024753;28;20033;-55
2023/06/11 06:03:33;;;;;;;6.15;3.92;;;23.40;69.40;;;;;;5024591;28;20489;-55
2023/06/11 06:06:03;;;;;;;4.28;3.28;;;23.40;69.30;;;;;;5024596;28;20026;-55
2023/06/11 06:08:28;;;;;;;4.00;3.60;;;23.40;69.50;;;;;;5026005;28;20056;-55
2023/06/11 06:10:54;;;;;;;4.18;3.72;;;23.40;69.60;;;;;;5024932;28;20026;-55
2023/06/11 06:13:23;;;;;;;4.18;3.78;;;23.40;69.70;;;;;;5024234;28;20041;-55
2023/06/11 06:15:48;;;;;;;4.40;4.00;;;23.40;69.90;;;;;;5026017;28;20049;-54
2023/06/11 06:18:15;;;;;;;4.05;3.67;;;23.30;70.70;;;;;;5025712;28;20052;-55
2023/06/11 06:20:41;;;;;;;3.72;3.42;;;23.30;70.00;;;;;;5024537;28;20049;-55
2023/06/11 06:23:07;;;;;;;4.03;3.63;;;23.30;69.90;;;;;;5024166;28;20022;-55
2023/06/11 06:25:33;;;;;;;3.90;3.60;;;23.30;70.10;;;;;;5024310;28;20030;-55
2023/06/11 06:27:59;;;;;;;4.28;3.38;;;23.30;70.10;;;;;;5025377;28;20026;-55
2023/06/11 06:30:25;;;;;;;4.10;3.80;;;23.30;70.10;;;;;;5025537;28;20398;-54
2023/06/11 06:32:50;;;;;;;4.82;3.70;;;23.30;70.20;;;;;;5026894;28;20032;-55
2023/06/11 06:35:16;;;;;;;4.22;3.88;;;23.30;70.30;;;;;;5025646;28;20061;-55
2023/06/11 06:37:41;;;;;;;4.53;4.13;;;23.30;70.30;;;;;;5025393;28;20030;-55
2023/06/11 06:40:08;;;;;;;5.38;3.90;;;23.30;70.40;;;;;;5023983;28;20034;-54
2023/06/11 06:42:33;;;;;;;3.92;3.63;;;23.30;70.40;;;;;;5025995;28;20073;-55
2023/06/11 06:44:59;;;;;;;3.97;3.67;;;23.30;70.40;;;;;;5025850;28;20030;-55
2023/06/11 06:47:24;;;;;;;3.92;3.60;;;23.30;70.40;;;;;;5023916;28;20030;-55
2023/06/11 06:49:50;;;;;;;4.15;3.75;;;23.30;70.50;;;;;;5024018;28;20030;-55
2023/06/11 06:52:15;;;;;;;3.95;3.65;;;23.30;70.60;;;;;;5025514;28;20053;-55
2023/06/11 06:54:41;;;;;;;10.73;4.05;;;23.30;70.60;;;;;;5024577;28;20033;-55
2023/06/11 06:57:08;;;;;;;4.10;3.70;;;23.30;70.60;;;;;;5025250;28;20033;-54
2023/06/11 06:59:34;;;;;;;10.57;3.72;;;23.30;70.60;;;;;;5023766;28;20054;-55
2023/06/11 07:02:00;;;;;;;6.03;3.90;;;23.30;71.40;;;;;;5023786;28;20045;-54
2023/06/11 07:04:25;;;;;;;4.40;4.00;;;23.30;70.80;;;;;;5024936;28;20461;-55
2023/06/11 07:06:51;;;;;;;4.43;4.03;;;23.30;70.90;;;;;;5023811;28;20034;-55
2023/06/11 07:09:16;;;;;;;4.35;3.95;;;23.30;71.00;;;;;;5024923;28;20069;-54
2023/06/11 07:11:42;;;;;;;5.07;4.07;;;23.30;71.90;;;;;;5024739;28;20038;-54
2023/06/11 07:14:08;;;;;;;5.00;4.40;;;23.30;71.10;;;;;;5023389;28;20547;-54
2023/06/11 07:16:33;;;;;;;5.22;4.18;;;23.20;71.00;;;;;;5023438;28;20038;-54
2023/06/11 07:18:59;;;;;;;6.38;4.22;;;23.30;71.20;;;;;;5024791;28;20053;-55
2023/06/11 07:21:24;;;;;;;8.07;4.80;;;23.30;71.10;;;;;;5025103;28;20501;-55
2023/06/11 07:23:50;;;;;;;5.85;4.05;;;23.30;71.30;;;;;;5023522;28;20040;-55
2023/06/11 07:26:17;;;;;;;8.65;4.40;;;23.20;71.20;;;;;;5024799;28;20026;-55
2023/06/11 07:28:43;;;;;;;6.38;4.28;;;23.20;71.10;;;;;;5036589;28;20029;-54
2023/06/11 07:31:09;;;;;;;5.63;4.25;;;23.20;71.10;;;;;;5041159;28;20026;-55
2023/06/11 07:33:34;;;;;;;4.95;4.47;;;23.20;71.10;;;;;;5041398;28;20022;-54
2023/06/11 07:36:00;;;;;;;4.20;3.85;;;23.30;71.30;;;;;;5044159;28;20044;-54
2023/06/11 07:38:25;;;;;;;7.32;4.38;;;23.30;71.30;;;;;;5043268;28;20131;-55
2023/06/11 07:40:52;;;;;;;5.68;4.28;;;23.20;71.10;;;;;;5043160;28;20029;-55
2023/06/11 07:43:17;;;;;;;5.80;4.32;;;23.30;71.30;;;;;;5039889;28;20025;-55
2023/06/11 07:45:43;;;;;;;4.72;4.10;;;23.20;71.20;;;;;;5042774;28;20038;-55
2023/06/11 07:48:09;;;;;;;4.68;4.28;;;23.30;71.10;;;;;;5044064;28;20104;-55
2023/06/11 07:50:37;;;;;;;5.65;4.20;;;23.30;71.10;;;;;;5027658;28;20128;-55
2023/06/11 07:53:03;;;;;;;5.22;3.97;;;23.30;71.20;;;;;;5047072;28;20021;-55
2023/06/11 07:55:28;;;;;;;5.68;5.18;;;23.30;71.70;;;;;;5048459;28;20051;-55
2023/06/11 07:57:54;;;;;;;5.22;4.72;;;23.30;72.90;;;;;;5046697;28;20036;-55
2023/06/11 08:00:19;;;;;;;5.72;5.13;;;23.30;73.20;;;;;;5047067;28;20034;-55
2023/06/11 08:02:45;;;;;;;5.78;5.18;;;23.20;73.60;;;;;;5048256;28;20557;-55
2023/06/11 08:05:12;;;;;;;6.13;5.53;;;23.20;73.90;;;;;;5047872;28;20029;-56
2023/06/11 08:07:38;;;;;;;7.53;5.40;;;23.20;74.50;;;;;;5046531;28;20026;-54
2023/06/11 08:10:05;;;;;;;5.75;5.20;;;23.20;74.70;;;;;;5030207;28;20092;-55
2023/06/11 08:12:30;;;;;;;7.97;6.10;;;23.20;74.70;;;;;;5046529;28;20048;-55
2023/06/11 08:14:56;;;;;;;6.32;5.25;;;23.20;75.00;;;;;;5045554;28;20458;-55
2023/06/11 08:17:21;;;;;;;10.20;5.90;;;23.10;75.20;;;;;;5047362;28;20065;-55
2023/06/11 08:19:47;;;;;;;31.90;6.00;;;23.20;76.10;;;;;;5046088;28;20037;-55
2023/06/11 08:22:13;;;;;;;14.30;6.72;;;23.10;76.10;;;;;;5029310;28;20165;-54
2023/06/11 08:24:38;;;;;;;17.60;6.60;;;23.10;76.30;;;;;;5043686;28;20021;-55
2023/06/11 08:27:04;;;;;;;17.73;6.72;;;23.10;76.30;;;;;;5033296;28;20102;-54
2023/06/11 08:29:30;;;;;;;10.35;5.88;;;23.10;76.90;;;;;;5028652;28;20026;-55
2023/06/11 08:31:56;;;;;;;17.60;6.65;;;23.20;76.70;;;;;;5033108;28;20052;-54
2023/06/11 08:34:22;;;;;;;17.35;6.55;;;23.20;76.70;;;;;;5029642;28;20033;-55
2023/06/11 08:36:47;;;;;;;16.52;7.43;;;23.20;76.80;;;;;;5029865;28;20034;-54
2023/06/11 08:39:13;;;;;;;22.10;7.88;;;23.20;76.70;;;;;;5043892;28;20049;-55
2023/06/11 08:41:38;;;;;;;14.63;6.65;;;23.20;76.80;;;;;;5040788;28;20038;-55
2023/06/11 08:44:04;;;;;;;31.58;7.85;;;23.20;76.90;;;;;;5056297;28;20044;-55
2023/06/11 08:46:33;;;;;;;39.47;9.20;;;23.20;76.70;;;;;;5044094;28;20032;-54
2023/06/11 08:49:00;;;;;;;22.90;8.10;;;23.30;77.20;;;;;;5035388;28;20030;-55
2023/06/11 08:51:27;;;;;;;22.27;7.55;;;23.30;77.00;;;;;;5040749;28;20099;-55
2023/06/11 08:53:52;;;;;;;28.67;7.93;;;23.30;77.00;;;;;;5045576;28;20025;-54
2023/06/11 08:56:18;;;;;;;37.03;9.32;;;23.30;77.50;;;;;;5038474;28;20053;-54
2023/06/11 08:58:44;;;;;;;28.95;9.48;;;23.30;77.30;;;;;;5034201;28;20354;-54
2023/06/11 09:01:10;;;;;;;44.92;10.05;;;23.30;78.30;;;;;;5050348;28;20033;-55
2023/06/11 09:03:35;;;;;;;29.45;8.52;;;23.40;78.60;;;;;;5050655;28;20037;-55
2023/06/11 09:06:01;;;;;;;59.17;11.30;;;23.30;78.00;;;;;;5050597;28;20033;-55
2023/06/11 09:08:27;;;;;;;108.68;12.68;;;23.40;79.00;;;;;;5033218;28;20026;-55
2023/06/11 09:10:53;;;;;;;75.68;13.00;;;23.40;78.40;;;;;;5038124;28;20029;-55
2023/06/11 09:13:18;;;;;;;61.05;11.20;;;23.40;78.20;;;;;;5049642;28;20029;-54
2023/06/11 09:15:52;;;;;;;58.38;11.23;;;23.40;78.90;;;;;;5038796;28;20121;-55
2023/06/11 09:18:27;;;;;;;34.53;9.85;;;23.40;78.30;;;;;;5044335;28;20060;-55
2023/06/11 09:20:57;;;;;;;85.32;14.25;;;23.40;78.00;;;;;;5040597;28;20032;-55
2023/06/11 09:23:28;;;;;;;65.45;12.40;;;23.40;79.00;;;;;;5046712;28;20068;-55
2023/06/11 09:25:53;;;;;;;68.65;12.77;;;23.40;78.70;;;;;;5047464;28;20025;-55
2023/06/11 09:28:19;;;;;;;106.20;16.77;;;23.50;79.50;;;;;;5044586;28;20075;-55
2023/06/11 09:30:55;;;;;;;88.97;14.90;;;23.50;79.40;;;;;;5042272;28;20028;-55
2023/06/11 09:33:20;;;;;;;78.30;12.68;;;23.50;79.60;;;;;;5029638;28;20025;-55
2023/06/11 09:35:46;;;;;;;82.10;13.18;;;23.50;79.40;;;;;;5043078;28;20041;-55
2023/06/11 09:38:15;;;;;;;55.53;11.32;;;23.50;78.70;;;;;;5047111;28;20033;-54
2023/06/11 09:40:47;;;;;;;61.97;13.05;;;23.50;78.20;;;;;;5043948;28;20117;-55
2023/06/11 09:43:13;;;;;;;68.63;15.05;;;23.50;79.20;;;;;;5041459;28;20061;-54
2023/06/11 09:45:38;;;;;;;75.78;13.80;;;23.60;78.60;;;;;;5047553;28;20052;-54
2023/06/11 09:48:05;;;;;;;89.40;14.75;;;23.60;78.30;;;;;;5042854;28;20021;-54
2023/06/11 09:50:30;;;;;;;71.38;14.77;;;23.60;78.60;;;;;;5036980;28;20042;-55
2023/06/11 09:52:56;;;;;;;126.72;17.63;;;23.60;79.20;;;;;;5043163;28;20021;-55
2023/06/11 09:55:25;;;;;;;142.07;19.55;;;23.70;79.60;;;;;;5041185;28;20037;-55
2023/06/11 09:57:51;;;;;;;101.10;16.08;;;23.70;79.30;;;;;;5040998;28;20033;-59
2023/06/11 10:00:19;;;;;;;50.53;11.75;;;23.70;78.60;;;;;;5032627;28;20056;-59
2023/06/11 10:02:45;;;;;;;90.50;13.30;;;23.70;78.80;;;;;;5040104;28;20030;-58
2023/06/11 10:05:12;;;;;;;51.20;11.02;;;23.80;78.60;;;;;;5040190;28;20049;-58
2023/06/11 10:07:49;;;;;;;61.47;12.90;;;23.80;78.90;;;;;;5046486;28;20466;-58
2023/06/11 10:10:18;;;;;;;52.08;11.52;;;23.80;78.70;;;;;;5040859;28;20026;-59
2023/06/11 10:12:51;;;;;;;52.83;10.55;;;23.80;78.60;;;;;;5043420;28;20084;-58
2023/06/11 10:15:17;;;;;;;69.13;12.68;;;24.00;78.80;;;;;;5038391;28;20476;-58
2023/06/11 10:17:47;;;;;;;81.45;13.23;;;24.00;78.60;;;;;;5039893;28;20069;-58
2023/06/11 10:20:26;;;;;;;67.65;11.90;;;24.00;78.40;;;;;;5035969;28;20071;-58
2023/06/11 10:23:03;;;;;;;73.80;13.48;;;24.00;78.40;;;;;;5039106;28;20041;-58
2023/06/11 10:25:41;;;;;;;64.57;13.57;;;24.10;78.20;;;;;;5048955;28;20038;-59
2023/06/11 10:28:07;;;;;;;81.43;13.20;;;24.20;78.10;;;;;;5052166;28;20033;-58
2023/06/11 10:30:33;;;;;;;57.28;12.95;;;24.20;77.80;;;;;;5031443;28;20026;-58
2023/06/11 10:32:59;;;;;;;64.00;11.57;;;24.20;77.40;;;;;;5033124;28;20319;-58
2023/06/11 10:35:28;;;;;;;65.65;11.75;;;24.20;77.10;;;;;;5033311;28;20038;-58
2023/06/11 10:38:16;;;;;;;74.85;12.02;;;24.20;77.00;;;;;;5027294;28;20025;-58
2023/06/11 10:40:41;;;;;;;62.63;12.18;;;24.30;76.90;;;;;;5032010;28;20140;-58
2023/06/11 10:43:19;;;;;;;61.53;10.88;;;24.40;77.00;;;;;;5041944;28;20099;-59
2023/06/11 10:45:44;;;;;;;102.15;16.98;;;24.40;76.90;;;;;;5037700;28;20065;-58
2023/06/11 10:48:11;;;;;;;28.17;7.70;;;24.40;76.30;;;;;;5038564;28;20029;-58
2023/06/11 10:50:36;;;;;;;41.03;9.45;;;24.40;75.90;;;;;;5041440;28;20033;-58
2023/06/11 10:53:09;;;;;;;59.88;10.85;;;24.50;76.10;;;;;;5043804;28;20113;-58
2023/06/11 10:55:36;;;;;;;62.15;10.27;;;24.60;75.80;;;;;;5045089;28;20129;-58
2023/06/11 10:58:01;;;;;;;61.67;10.05;;;24.60;75.60;;;;;;5042746;28;20093;-58
2023/06/11 11:00:32;;;;;;;58.83;10.35;;;24.80;75.60;;;;;;5040561;28;20040;-59
2023/06/11 11:02:57;;;;;;;79.10;12.45;;;24.90;75.40;;;;;;5041587;28;20040;-58
2023/06/11 11:05:23;;;;;;;182.65;22.85;;;24.90;75.20;;;;;;5042152;28;20025;-58
2023/06/11 11:07:49;;;;;;;91.57;13.60;;;25.00;74.90;;;;;;5033326;28;20026;-58
2023/06/11 11:10:23;;;;;;;78.18;12.93;;;25.10;74.90;;;;;;5038907;28;20039;-58
2023/06/11 11:12:49;;;;;;;66.15;11.25;;;25.10;74.70;;;;;;5040175;28;20038;-59
2023/06/11 11:15:15;;;;;;;69.55;11.23;;;25.30;74.60;;;;;;5039363;28;20147;-58
2023/06/11 11:17:42;;;;;;;65.93;10.85;;;25.30;74.30;;;;;;5035353;28;20033;-58
2023/06/11 11:20:11;;;;;;;49.90;10.18;;;25.40;74.10;;;;;;5041119;28;20026;-58
2023/06/11 11:22:37;;;;;;;91.90;13.23;;;25.40;73.70;;;;;;5030837;28;20042;-58
2023/06/11 11:25:04;;;;;;;48.72;8.95;;;25.40;73.30;;;;;;5025494;28;20026;-58
2023/06/11 11:27:30;;;;;;;54.80;9.13;;;25.50;72.90;;;;;;5034903;28;20034;-58
2023/06/11 11:29:57;;;;;;;37.50;8.50;;;25.60;72.30;;;;;;5023848;28;20056;-58
2023/06/11 11:32:27;;;;;;;67.90;11.57;;;25.60;72.10;;;;;;5032196;28;20034;-58
2023/06/11 11:34:53;;;;;;;24.17;6.30;;;25.70;71.40;;;;;;5030451;28;20021;-58
2023/06/11 11:37:19;;;;;;;56.25;9.82;;;25.70;71.00;;;;;;5042584;28;20025;-58
2023/06/11 11:39:44;;;;;;;96.68;13.88;;;25.80;70.50;;;;;;5036125;28;20456;-58
2023/06/11 11:42:10;;;;;;;70.95;12.13;;;25.90;70.10;;;;;;5024004;28;20022;-59
2023/06/11 11:44:42;;;;;;;81.20;11.27;;;26.00;70.40;;;;;;5024693;28;20026;-58
2023/06/11 11:47:11;;;;;;;163.45;18.88;;;26.00;69.90;;;;;;5024297;28;20076;-58
2023/06/11 11:49:37;;;;;;;88.60;12.85;;;26.20;69.70;;;;;;5035330;28;20086;-58
2023/06/11 11:52:07;;;;;;;72.88;11.10;;;26.20;69.00;;;;;;5025615;28;20034;-58
2023/06/11 11:54:40;;;;;;;95.07;13.88;;;26.30;68.50;;;;;;5041288;28;20309;-59
2023/06/11 11:57:09;;;;;;;79.32;11.77;;;26.30;68.00;;;;;;5045785;28;20113;-59
2023/06/11 11:59:38;;;;;;;98.47;13.13;;;26.40;67.40;;;;;;5032975;28;20229;-59
2023/06/11 12:02:03;;;;;;;60.47;9.60;;;26.50;67.20;;;;;;5036314;28;20044;-58
2023/06/11 12:04:36;;;;;;;64.70;9.48;;;26.50;67.00;;;;;;5032290;28;20105;-58
2023/06/11 12:07:03;;;;;;;52.13;8.07;;;26.60;67.10;;;;;;5022619;28;20481;-58
2023/06/11 12:09:29;;;;;;;38.17;7.93;;;26.70;66.80;;;;;;5028449;28;20107;-58
2023/06/11 12:11:54;;;;;;;140.95;18.08;;;26.70;66.50;;;;;;5038603;28;20565;-58
2023/06/11 12:14:20;;;;;;;81.00;11.60;;;26.70;65.90;;;;;;5026620;28;20417;-59
2023/06/11 12:16:48;;;;;;;42.35;8.38;;;26.80;65.90;;;;;;5020827;28;20040;-59
2023/06/11 12:19:17;;;;;;;52.97;8.48;;;26.90;65.70;;;;;;5050835;28;20048;-59
2023/06/11 12:21:42;;;;;;;43.65;7.88;;;26.90;65.70;;;;;;5022178;28;20026;-58
2023/06/11 12:24:13;;;;;;;26.23;5.97;;;26.90;65.50;;;;;;5018314;28;20087;-58
2023/06/11 12:26:40;;;;;;;28.90;6.47;;;27.00;64.90;;;;;;5036420;28;20026;-59
2023/06/11 12:29:06;;;;;;;23.25;5.70;;;27.00;64.30;;;;;;5037897;28;20081;-58
2023/06/11 12:31:31;;;;;;;58.28;8.70;;;27.10;64.40;;;;;;5045837;28;20030;-59
2023/06/11 12:33:57;;;;;;;28.45;7.18;;;27.10;64.40;;;;;;5063374;28;20028;-58
2023/06/11 12:36:22;;;;;;;17.80;5.45;;;27.20;64.40;;;;;;5062648;28;20053;-59
2023/06/11 12:38:48;;;;;;;6.38;3.70;;;27.20;63.10;;;;;;5041833;28;20033;-58